Latest Coastal Weather Observations for Darwin Airport

IDD60701

Issued at 8:01 pm CST Saturday 24 June 2017 (issued every 10 minutes, with the page automatically refreshed every 10 minutes)

About coastal observations | Map of coastal stations | Coastal observations for NT | Marine services | Other Formats
Station Details ID: 014015 Name: DARWIN AIRPORT Lat: -12.42 Lon: 130.89 Height: 30.4 m
Data from the previous 72 hours. | See also: Recent months at Darwin Airport
Date/Time
CST
Temp
°C
Wind Pressure Rain since
9am
mm
Weather Cloud Vis
km
Sea
Height
m
Swell
Dir  Spd
kts
Gust
kts
hPa Trend Height
m
Period
s
Dir
24/07:30pm 24.5 NNE 5 7 1010.2 - 0.0 - - 10 - - - -
24/07:00pm 25.0 NNE 5 6 1009.8 - 0.0 - - 10 - - - -
24/06:30pm 25.8 N 7 9 1009.5 - 0.0 - - 10 - - - -
24/06:00pm 26.7 N 9 13 1009.3 F 0.0 Smoke Mostly clear 30 - - - -
24/05:30pm 27.3 N 9 12 1009.2 - 0.0 - - 10 - - - -
24/05:00pm 28.5 N 10 11 1009.1 - 0.0 - - 10 - - - -
24/04:30pm 29.4 NNW 9 11 1009.0 - 0.0 - - 10 - - - -
24/04:00pm 29.3 NNW 10 12 1009.2 - 0.0 - - 10 - - - -
24/03:30pm 29.6 NW 10 12 1009.5 - 0.0 - - 10 - - - -
24/03:00pm 31.0 NNW 4 8 1009.7 F 0.0 Fine Partly cloudy 30 - - - -
24/02:30pm 31.1 SE 7 13 1010.1 - 0.0 - - 10 - - - -
24/02:00pm 30.8 ENE 8 13 1010.8 - 0.0 - Mostly clear 10 - - - -
24/01:30pm 30.0 E 6 10 1011.3 - 0.0 - Mostly clear 10 - - - -
24/01:00pm 29.8 ENE 10 14 1011.7 - 0.0 - Mostly clear 10 - - - -
24/12:30pm 29.7 E 10 16 1012.4 - 0.0 - Mostly clear 10 - - - -
24/12:00pm 28.7 E 11 14 1012.8 F 0.0 Fine Partly cloudy 30 - - - -
24/11:30am 28.0 ESE 9 16 1013.4 - 0.0 - Mostly clear 10 - - - -
24/11:00am 27.3 E 8 12 1013.7 - 0.0 - Mostly clear 10 - - - -
24/10:30am 26.7 E 8 10 1014.0 - 0.0 - Mostly clear 10 - - - -
24/10:00am 26.5 ENE 10 14 1014.2 - 0.0 - Mostly clear 10 - - - -
24/09:30am 25.8 ENE 8 12 1014.2 - 0.0 - Mostly clear 10 - - - -
24/09:00am 25.4 ENE 8 11 1013.9 R 0.0 Fine Mostly cloudy 30 - - - -
24/08:30am 24.3 E 5 5 1013.5 - 0.0 - Mostly clear 10 - - - -
24/08:00am 23.4 E 5 6 1013.2 - 0.0 - Mostly clear 10 - - - -
24/07:30am 21.5 ESE 5 6 1012.9 - 0.0 - - 10 - - - -
24/07:00am 20.9 E 4 5 1012.5 - 0.0 - - 10 - - - -
24/06:30am 21.2 ESE 5 6 1012.3 - 0.0 - - 10 - - - -
24/06:00am 21.5 ESE 5 6 1012.1 F 0.0 Fine Partly cloudy 30 - - - -
24/05:30am 20.6 E 4 5 1012.0 - 0.0 - - 10 - - - -
24/05:00am 20.3 E 3 4 1011.9 - 0.0 - - 10 - - - -
24/04:30am 20.7 E 2 3 1011.7 - 0.0 - - 10 - - - -
24/04:00am 20.8 ENE 1 2 1011.9 - 0.0 - - 10 - - - -
24/03:30am 20.9 ENE 2 2 1012.0 - 0.0 - - 10 - - - -
24/03:00am 21.1 E 2 3 1012.1 F 0.0 Fine Partly cloudy 25 - - - -
24/02:30am 21.6 E 2 3 1012.3 - 0.0 - - 10 - - - -
24/02:00am 22.0 E 4 5 1012.4 - 0.0 - - 10 - - - -
24/01:30am 22.0 ESE 3 4 1012.7 - 0.0 - - 10 - - - -
24/01:00am 22.2 E 3 3 1012.9 - 0.0 - - 10 - - - -
24/12:30am 22.2 ENE 3 3 1013.0 - 0.0 - - 10 - - - -
24/12:00am 22.6 SE 3 4 1012.8 F 0.0 Smoke Mostly clear 25 - - - -
 
Date/Time
CST
Temp
°C
Wind Pressure Rain since
9am
mm
Weather Cloud Vis
km
Sea
Height
m
Swell
Dir  Spd
kts
Gust
kts
hPa Trend Height
m
Period
s
Dir
23/11:30pm 23.9 S 5 5 1012.9 - 0.0 - - 10 - - - -
23/11:00pm 24.2 S 5 6 1013.0 - 0.0 - - 10 - - - -
23/10:30pm 24.3 S 4 5 1013.0 - 0.0 - - 10 - - - -
23/10:00pm 24.2 ESE 1 2 1012.9 - 0.0 - - 10 - - - -
23/09:30pm 23.6 NE 1 2 1012.6 - 0.0 - - 10 - - - -
23/09:00pm 24.0 N 1 3 1012.5 R 0.0 Fine Mostly clear 30 - - - -
23/08:30pm 24.7 NNE 3 4 1012.2 - 0.0 - - 10 - - - -
23/08:00pm 25.0 NNE 5 6 1011.9 - 0.0 - - 10 - - - -
23/07:30pm 25.2 NNE 6 7 1011.5 - 0.0 - - 10 - - - -
23/07:00pm 25.6 N 6 8 1011.1 - 0.0 - - 10 - - - -
23/06:30pm 26.0 N 7 10 1011.0 - 0.0 - - 10 - - - -
23/06:00pm 26.9 N 8 10 1010.7 F 0.0 Smoke Mostly clear 30 - - - -
23/05:30pm 27.6 NNE 7 10 1010.5 - 0.0 - - 10 - - - -
23/05:00pm 28.0 N 9 11 1010.4 - 0.0 - - 10 - - - -
23/04:30pm 28.7 N 9 12 1010.3 - 0.0 - - 10 - - - -
23/04:00pm 29.0 N 10 13 1010.2 - 0.0 - - 10 - - - -
23/03:30pm 29.4 NNW 10 14 1010.4 - 0.0 - - 10 - - - -
23/03:00pm 29.2 NNW 9 11 1010.7 F 0.0 Smoke Mostly clear 25 - - - -
23/02:30pm 31.4 NW 10 12 1011.1 - 0.0 - - 10 - - - -
23/02:00pm 30.3 WNW 5 8 1011.5 - 0.0 - Mostly clear 10 - - - -
23/01:30pm 30.7 E 5 10 1011.9 - 0.0 - Mostly clear 10 - - - -
23/01:00pm 30.2 SE 7 11 1012.6 - 0.0 - Mostly clear 10 - - - -
23/12:30pm 29.3 ESE 6 11 1013.1 - 0.0 - Mostly clear 10 - - - -
23/12:00pm 29.6 SE 8 12 1013.8 F 0.0 Smoke Mostly clear 25 - - - -
23/11:30am 29.0 E 8 12 1014.2 - 0.0 - Mostly clear 10 - - - -
23/11:00am 27.9 ESE 9 12 1014.4 - 0.0 - Mostly clear 10 - - - -
23/10:30am 27.8 E 8 11 1014.8 - 0.0 - - 10 - - - -
23/10:00am 26.4 E 8 11 1015.0 - 0.0 - - 10 - - - -
23/09:30am 25.2 ESE 5 8 1015.2 - 0.0 - Mostly clear 10 - - - -
23/09:00am 24.8 SE 5 6 1014.9 S 0.0 Smoke Mostly clear 20 - - - -
23/08:53am 24.3 SSE 4 6 1014.8 - 0.0 - Partly cloudy 10 - - - -
23/08:41am 23.8 SSE 5 6 1014.7 - 0.0 - Partly cloudy 10 - - - -
23/08:30am 23.0 SE 5 7 1014.6 - 0.0 - Partly cloudy 10 - - - -
23/08:18am 23.0 SE 4 5 1014.5 - 0.0 - Mostly cloudy 10 - - - -
23/08:00am 22.8 SSE 4 5 1014.2 - 0.0 - Mostly clear 10 - - - -
23/07:30am 21.6 S 4 4 1014.0 - 0.0 - Mostly clear 10 - - - -
23/07:11am 20.5 SE 2 3 1013.9 - 0.0 - Partly cloudy 10 - - - -
23/07:00am 20.1 SE 2 3 1013.8 - 0.0 - Partly cloudy 10 - - - -
23/06:51am 20.0 SSE 3 3 1013.7 - 0.0 - Partly cloudy 10 - - - -
23/06:30am 19.6 SE 2 3 1013.7 - 0.0 - - 10 - - - -
23/06:00am 19.9 SSE 3 4 1013.4 F 0.0 Smoke Clear 25 - - - -
23/05:30am 20.0 SSE 2 3 1013.2 - 0.0 - - 10 - - - -
23/05:00am 20.2 SE 2 3 1013.2 - 0.0 - - 10 - - - -
23/04:30am 20.7 SE 2 3 1013.3 - 0.0 - - 10 - - - -
23/04:00am 21.1 SSE 5 6 1013.2 - 0.0 - - 10 - - - -
23/03:30am 22.0 S 5 6 1013.3 - 0.0 - - 10 - - - -
23/03:00am 22.0 SSE 3 3 1013.5 F 0.0 Fine Clear 30 - - - -
23/02:30am 22.2 S 5 6 1013.6 - 0.0 - - 10 - - - -
23/02:00am 22.3 S 5 6 1014.0 - 0.0 - - 10 - - - -
23/01:30am 22.5 S 5 6 1014.3 - 0.0 - - 10 - - - -
23/01:00am 22.1 S 4 5 1014.5 - 0.0 - - 10 - - - -
23/12:30am 21.6 CALM 0 1 1014.6 - 0.0 - - 10 - - - -
23/12:00am 21.7 SE 1 2 1014.7 F 0.0 Fine Mostly clear 30 - - - -
 
Date/Time
CST
Temp
°C
Wind Pressure Rain since
9am
mm
Weather Cloud Vis
km
Sea
Height
m
Swell
Dir  Spd
kts
Gust
kts
hPa Trend Height
m
Period
s
Dir
22/11:30pm 23.2 S 5 7 1014.6 - 0.0 - - 10 - - - -
22/11:00pm 23.3 S 5 7 1014.6 - 0.0 - - 10 - - - -
22/10:30pm 23.5 S 5 5 1014.6 - 0.0 - - 10 - - - -
22/10:00pm 23.8 CALM 0 3 1014.7 - 0.0 - - 10 - - - -
22/09:30pm 23.5 N 2 3 1014.4 - 0.0 - - 10 - - - -
22/09:00pm 24.0 N 3 3 1014.3 R 0.0 Fine Clear 30 - - - -
22/08:30pm 24.2 N 3 5 1014.0 - 0.0 - - 10 - - - -
22/08:00pm 24.6 NNE 5 6 1013.8 - 0.0 - - 10 - - - -
22/07:30pm 25.2 NNE 5 7 1013.4 - 0.0 - - 10 - - - -
22/07:00pm 26.1 NNE 6 9 1013.1 - 0.0 - - 10 - - - -
22/06:30pm 26.9 N 7 9 1012.5 - 0.0 - - 10 - - - -
22/06:00pm 27.9 N 7 10 1012.2 R 0.0 Fine Mostly clear 30 - - - -
22/05:30pm 29.0 NNW 7 11 1011.9 - 0.0 - - 10 - - - -
22/05:00pm 29.3 NNW 8 10 1011.7 - 0.0 - - 10 - - - -
22/04:30pm 30.0 NNW 8 10 1011.5 - 0.0 - - 10 - - - -
22/04:00pm 30.6 NW 8 11 1011.4 - 0.0 - - 10 - - - -
22/03:30pm 30.6 WNW 10 11 1011.6 - 0.0 - - 10 - - - -
22/03:00pm 32.1 W 6 10 1011.8 R 0.0 Smoke Clear 25 - - - -
22/02:30pm 31.6 E 6 10 1012.0 - 0.0 - - 10 - - - -
22/02:00pm 31.3 ESE 10 12 1012.5 - 0.0 - - 10 - - - -
22/01:30pm 31.1 ESE 8 14 1012.7 - 0.0 - - 10 - - - -
22/01:00pm 31.0 E 9 13 1013.1 - 0.0 - - 10 - - - -
22/12:30pm 30.3 E 11 16 1013.5 - 0.0 - - 10 - - - -
22/12:00pm 29.8 E 11 15 1014.0 F 0.0 Smoke Clear 25 - - - -
22/11:30am 29.1 ENE 12 17 1014.4 - 0.0 - - 10 - - - -
22/11:00am 28.6 E 11 15 1014.8 - 0.0 - - 10 - - - -
22/10:30am 28.0 E 10 15 1015.1 - 0.0 - - 10 - - - -
22/10:00am 26.9 E 8 10 1015.3 - 0.0 - - 10 - - - -
22/09:30am 25.7 E 9 13 1015.3 - 0.0 - - 10 - - - -
22/09:00am 24.8 E 9 10 1015.3 R 0.0 Smoke Clear 15 - - - -
22/08:30am 23.6 ESE 7 8 1015.1 - 0.0 - - 10 - - - -
22/08:00am 22.6 E 7 9 1014.7 - 0.0 - - 10 - - - -
22/07:30am 21.4 ESE 5 5 1014.6 - 0.0 - - 10 - - - -
22/07:00am 21.0 ESE 6 7 1014.4 - 0.0 - - 10 - - - -
22/06:30am 21.6 ESE 6 7 1013.9 - 0.0 - - 10 - - - -
22/06:00am 21.5 ESE 4 6 1013.6 F 0.0 Smoke Clear 25 - - - -
22/05:30am 22.3 ESE 5 6 1013.4 - 0.0 - - 10 - - - -
22/05:00am 22.1 ESE 6 7 1013.5 - 0.0 - - 10 - - - -
22/04:30am 21.9 SE 6 7 1013.4 - 0.0 - - 10 - - - -
22/04:00am 21.2 ESE 3 3 1013.5 - 0.0 - - 10 - - - -
22/03:30am 21.8 SE 4 5 1013.6 - 0.0 - - 10 - - - -
22/03:00am 20.7 SE 2 3 1013.7 F 0.0 - - 10 - - - -
22/02:30am 21.5 S 3 4 1013.7 - 0.0 - - 10 - - - -
22/02:00am 21.5 SSE 2 2 1014.0 - 0.0 - - 10 - - - -
22/01:30am 22.4 SSE 4 4 1014.3 - 0.0 - - 10 - - - -
22/01:00am 22.7 SSE 2 3 1014.3 - 0.0 - - 10 - - - -
22/12:30am 23.2 S 2 3 1014.3 - 0.0 - - 10 - - - -
22/12:00am 23.5 S 4 5 1014.5 R 0.0 Smoke Clear 25 - - - -
 
Date/Time
CST
Temp
°C
Wind Pressure Rain since
9am
mm
Weather Cloud Vis
km
Sea
Height
m
Swell
Dir  Spd
kts
Gust
kts
hPa Trend Height
m
Period
s
Dir
21/11:30pm 23.5 S 3 5 1014.5 - 0.0 - - 10 - - - -
21/11:00pm 23.8 SSW 4 5 1014.4 - 0.0 - - 10 - - - -
21/10:30pm 23.8 SSW 4 5 1014.4 - 0.0 - - 10 - - - -
21/10:00pm 24.1 SSW 4 5 1014.3 - 0.0 - - 10 - - - -
21/09:30pm 24.3 SW 3 3 1014.1 - 0.0 - - 10 - - - -
21/09:00pm 23.8 N 2 2 1013.7 R 0.0 Smoke Mostly clear 25 - - - -
21/08:30pm 23.8 NNW 2 2 1013.3 - 0.0 - - 10 - - - -

Other Formats:

Comma delimited format used in spreadsheet applications
http://www.bom.gov.au/fwo/IDD60701/IDD60701.94120.axf

JavaScript Object Notation format (JSON) in row-major order
http://www.bom.gov.au/fwo/IDD60701/IDD60701.94120.json